Time,TemperatureF,DewpointF,PressureIn,WindDirection,WindDirectionDegrees,WindSpeedMPH,WindSpeedGustMPH,Humidity,HourlyPrecipIn,Conditions,Clouds,dailyrainin,SoftwareType,DateUTC
2013-02-02 00:00:00,23.0,6.0,-100.00,NW,318,13.0,26.0,50,-99.99,,,-99.99,,2013-02-02 05:00:00,
2013-02-02 00:22:00,23.0,6.0,-100.00,NW,318,13.0,26.0,50,-99.99,,,-99.99,,2013-02-02 05:22:00,
2013-02-02 00:33:00,23.0,6.0,-100.00,NW,318,13.0,26.0,50,-99.99,,,-99.99,,2013-02-02 05:33:00,
2013-02-02 00:42:00,23.0,6.0,-100.00,NW,318,13.0,26.0,50,-99.99,,,-99.99,,2013-02-02 05:42:00,
2013-02-02 00:52:00,23.0,6.0,-100.00,NW,318,13.0,26.0,50,-99.99,,,-99.99,,2013-02-02 05:52:00,
2013-02-02 01:00:00,23.0,7.0,-100.00,NW,325,10.0,24.0,52,-99.99,,,-99.99,,2013-02-02 06:00:00,
2013-02-02 01:22:00,23.0,7.0,-100.00,NW,325,10.0,24.0,52,-99.99,,,-99.99,,2013-02-02 06:22:00,
2013-02-02 01:32:00,23.0,7.0,-100.00,NW,325,10.0,24.0,52,-99.99,,,-99.99,,2013-02-02 06:32:00,
2013-02-02 01:42:00,23.0,7.0,-100.00,NW,325,10.0,24.0,52,-99.99,,,-99.99,,2013-02-02 06:42:00,
2013-02-02 01:52:00,23.0,7.0,-100.00,NW,325,10.0,24.0,52,-99.99,,,-99.99,,2013-02-02 06:52:00,
2013-02-02 02:00:00,22.0,6.0,-100.00,NNW,329,21.0,22.0,51,-99.99,,,-99.99,,2013-02-02 07:00:00,
2013-02-02 02:21:00,22.0,6.0,-100.00,NNW,329,21.0,22.0,51,-99.99,,,-99.99,,2013-02-02 07:21:00,
2013-02-02 02:32:00,22.0,6.0,-100.00,NNW,329,21.0,22.0,51,-99.99,,,-99.99,,2013-02-02 07:32:00,
2013-02-02 02:42:00,22.0,6.0,-100.00,NNW,329,21.0,22.0,51,-99.99,,,-99.99,,2013-02-02 07:42:00,
2013-02-02 02:52:00,22.0,6.0,-100.00,NNW,329,21.0,22.0,51,-99.99,,,-99.99,,2013-02-02 07:52:00,
2013-02-02 03:00:00,22.0,7.0,-100.00,NW,322,12.0,22.0,54,-99.99,,,-99.99,,2013-02-02 08:00:00,
2013-02-02 03:21:00,22.0,7.0,-100.00,NW,322,12.0,22.0,54,-99.99,,,-99.99,,2013-02-02 08:21:00,
2013-02-02 03:32:00,22.0,7.0,-100.00,NW,322,12.0,22.0,54,-99.99,,,-99.99,,2013-02-02 08:32:00,
2013-02-02 03:42:00,22.0,7.0,-100.00,NW,322,12.0,22.0,54,-99.99,,,-99.99,,2013-02-02 08:42:00,
2013-02-02 03:53:00,22.0,7.0,-100.00,NW,322,12.0,22.0,54,-99.99,,,-99.99,,2013-02-02 08:53:00,
2013-02-02 04:00:00,22.0,6.0,-100.00,NNW,330,11.0,20.0,53,-99.99,,,-99.99,,2013-02-02 09:00:00,
2013-02-02 04:22:00,22.0,6.0,-100.00,NNW,330,11.0,20.0,53,-99.99,,,-99.99,,2013-02-02 09:22:00,
2013-02-02 04:32:00,22.0,6.0,-100.00,NNW,330,11.0,20.0,53,-99.99,,,-99.99,,2013-02-02 09:32:00,
2013-02-02 04:42:00,22.0,6.0,-100.00,NNW,330,11.0,20.0,53,-99.99,,,-99.99,,2013-02-02 09:42:00,
2013-02-02 04:52:00,22.0,6.0,-100.00,NNW,330,11.0,20.0,53,-99.99,,,-99.99,,2013-02-02 09:52:00,
2013-02-02 05:00:00,21.0,7.0,-100.00,NW,320,3.0,16.0,57,-99.99,,,-99.99,,2013-02-02 10:00:00,
2013-02-02 05:21:00,21.0,7.0,-100.00,NW,320,3.0,16.0,57,-99.99,,,-99.99,,2013-02-02 10:21:00,
2013-02-02 05:32:00,21.0,7.0,-100.00,NW,320,3.0,16.0,57,-99.99,,,-99.99,,2013-02-02 10:32:00,
2013-02-02 05:42:00,21.0,7.0,-100.00,NW,320,3.0,16.0,57,-99.99,,,-99.99,,2013-02-02 10:42:00,
2013-02-02 05:52:00,21.0,7.0,-100.00,NW,320,3.0,16.0,57,-99.99,,,-99.99,,2013-02-02 10:52:00,
2013-02-02 06:00:00,21.0,8.0,-100.00,NW,312,5.0,14.0,59,-99.99,,,-99.99,,2013-02-02 11:00:00,
2013-02-02 06:22:00,21.0,8.0,-100.00,NW,312,5.0,14.0,59,-99.99,,,-99.99,,2013-02-02 11:22:00,
2013-02-02 06:32:00,21.0,8.0,-100.00,NW,312,5.0,14.0,59,-99.99,,,-99.99,,2013-02-02 11:32:00,
2013-02-02 06:42:00,21.0,8.0,-100.00,NW,312,5.0,14.0,59,-99.99,,,-99.99,,2013-02-02 11:42:00,
2013-02-02 06:52:00,21.0,8.0,-100.00,NW,312,5.0,14.0,59,-99.99,,,-99.99,,2013-02-02 11:52:00,
2013-02-02 07:00:00,21.0,6.0,-100.00,WNW,293,9.0,14.0,57,-99.99,,,-99.99,,2013-02-02 12:00:00,
2013-02-02 07:22:00,21.0,6.0,-100.00,WNW,293,9.0,14.0,57,-99.99,,,-99.99,,2013-02-02 12:22:00,
2013-02-02 07:32:00,21.0,6.0,-100.00,WNW,293,9.0,14.0,57,-99.99,,,-99.99,,2013-02-02 12:32:00,
2013-02-02 07:42:00,21.0,6.0,-100.00,WNW,293,9.0,14.0,57,-99.99,,,-99.99,,2013-02-02 12:42:00,
2013-02-02 07:53:00,21.0,6.0,-100.00,WNW,293,9.0,14.0,57,-99.99,,,-99.99,,2013-02-02 12:53:00,
2013-02-02 08:00:00,22.0,7.0,-100.00,West,278,5.0,14.0,57,-99.99,,,-99.99,,2013-02-02 13:00:00,
2013-02-02 08:22:00,22.0,7.0,-100.00,West,278,5.0,14.0,57,-99.99,,,-99.99,,2013-02-02 13:22:00,
2013-02-02 08:33:00,22.0,7.0,-100.00,West,278,5.0,14.0,57,-99.99,,,-99.99,,2013-02-02 13:33:00,
2013-02-02 08:42:00,22.0,7.0,-100.00,West,278,5.0,14.0,57,-99.99,,,-99.99,,2013-02-02 13:42:00,
2013-02-02 08:52:00,22.0,7.0,-100.00,West,278,5.0,14.0,57,-99.99,,,-99.99,,2013-02-02 13:52:00,
2013-02-02 09:00:00,22.0,8.0,-100.00,WNW,295,10.0,13.0,56,-99.99,,,-99.99,,2013-02-02 14:00:00,
2013-02-02 09:22:00,22.0,8.0,-100.00,WNW,295,10.0,13.0,56,-99.99,,,-99.99,,2013-02-02 14:22:00,
2013-02-02 09:33:00,22.0,8.0,-100.00,WNW,295,10.0,13.0,56,-99.99,,,-99.99,,2013-02-02 14:33:00,
2013-02-02 09:42:00,22.0,8.0,-100.00,WNW,295,10.0,13.0,56,-99.99,,,-99.99,,2013-02-02 14:42:00,
2013-02-02 09:52:00,22.0,8.0,-100.00,WNW,295,10.0,13.0,56,-99.99,,,-99.99,,2013-02-02 14:52:00,
2013-02-02 10:00:00,24.0,9.0,-100.00,WSW,242,4.0,13.0,55,-99.99,,,-99.99,,2013-02-02 15:00:00,
2013-02-02 10:22:00,24.0,9.0,-100.00,WSW,242,4.0,13.0,55,-99.99,,,-99.99,,2013-02-02 15:22:00,
2013-02-02 10:33:00,24.0,9.0,-100.00,WSW,242,4.0,13.0,55,-99.99,,,-99.99,,2013-02-02 15:33:00,
2013-02-02 10:42:00,24.0,9.0,-100.00,WSW,242,4.0,13.0,55,-99.99,,,-99.99,,2013-02-02 15:42:00,
2013-02-02 10:52:00,24.0,9.0,-100.00,WSW,242,4.0,13.0,55,-99.99,,,-99.99,,2013-02-02 15:52:00,
2013-02-02 11:00:00,24.0,7.0,-100.00,WNW,293,9.0,12.0,48,-99.99,,,-99.99,,2013-02-02 16:00:00,
2013-02-02 11:23:00,24.0,7.0,-100.00,WNW,293,9.0,12.0,48,-99.99,,,-99.99,,2013-02-02 16:23:00,
2013-02-02 11:32:00,24.0,7.0,-100.00,WNW,293,9.0,12.0,48,-99.99,,,-99.99,,2013-02-02 16:32:00,
2013-02-02 11:42:00,24.0,7.0,-100.00,WNW,293,9.0,12.0,48,-99.99,,,-99.99,,2013-02-02 16:42:00,
2013-02-02 11:52:00,24.0,7.0,-100.00,WNW,293,9.0,12.0,48,-99.99,,,-99.99,,2013-02-02 16:52:00,
2013-02-02 12:00:00,25.0,9.0,-100.00,West,272,7.0,16.0,51,-99.99,,,-99.99,,2013-02-02 17:00:00,
2013-02-02 12:23:00,25.0,9.0,-100.00,West,272,7.0,16.0,51,-99.99,,,-99.99,,2013-02-02 17:23:00,
2013-02-02 12:33:00,25.0,9.0,-100.00,West,272,7.0,16.0,51,-99.99,,,-99.99,,2013-02-02 17:33:00,
2013-02-02 12:42:00,25.0,9.0,-100.00,West,272,7.0,16.0,51,-99.99,,,-99.99,,2013-02-02 17:42:00,
2013-02-02 12:53:00,25.0,9.0,-100.00,West,272,7.0,16.0,51,-99.99,,,-99.99,,2013-02-02 17:53:00,
2013-02-02 13:00:00,27.0,8.0,-100.00,SW,226,3.0,15.0,47,-99.99,,,-99.99,,2013-02-02 18:00:00,
2013-02-02 13:22:00,27.0,8.0,-100.00,SW,226,3.0,15.0,47,-99.99,,,-99.99,,2013-02-02 18:22:00,
2013-02-02 13:32:00,27.0,8.0,-100.00,SW,226,3.0,15.0,47,-99.99,,,-99.99,,2013-02-02 18:32:00,
2013-02-02 13:42:00,27.0,8.0,-100.00,SW,226,3.0,15.0,47,-99.99,,,-99.99,,2013-02-02 18:42:00,
2013-02-02 13:52:00,27.0,8.0,-100.00,SW,226,3.0,15.0,47,-99.99,,,-99.99,,2013-02-02 18:52:00,
2013-02-02 14:00:00,28.0,10.0,-100.00,South,190,1.0,11.0,48,-99.99,,,-99.99,,2013-02-02 19:00:00,
2013-02-02 14:22:00,28.0,10.0,-100.00,South,190,1.0,11.0,48,-99.99,,,-99.99,,2013-02-02 19:22:00,
2013-02-02 14:32:00,28.0,10.0,-100.00,South,190,1.0,11.0,48,-99.99,,,-99.99,,2013-02-02 19:32:00,
2013-02-02 14:42:00,28.0,10.0,-100.00,South,190,1.0,11.0,48,-99.99,,,-99.99,,2013-02-02 19:42:00,
2013-02-02 14:52:00,28.0,10.0,-100.00,South,190,1.0,11.0,48,-99.99,,,-99.99,,2013-02-02 19:52:00,
2013-02-02 15:00:00,30.0,13.0,-100.00,SSE,161,3.0,6.0,48,-99.99,,,-99.99,,2013-02-02 20:00:00,
2013-02-02 15:22:00,30.0,13.0,-100.00,SSE,161,3.0,6.0,48,-99.99,,,-99.99,,2013-02-02 20:22:00,
2013-02-02 15:32:00,30.0,13.0,-100.00,SSE,161,3.0,6.0,48,-99.99,,,-99.99,,2013-02-02 20:32:00,
2013-02-02 15:42:00,30.0,13.0,-100.00,SSE,161,3.0,6.0,48,-99.99,,,-99.99,,2013-02-02 20:42:00,
2013-02-02 15:52:00,30.0,13.0,-100.00,SSE,161,3.0,6.0,48,-99.99,,,-99.99,,2013-02-02 20:52:00,
2013-02-02 16:00:00,30.0,8.0,-100.00,WSW,252,6.0,8.0,40,-99.99,,,-99.99,,2013-02-02 21:00:00,
2013-02-02 16:22:00,30.0,8.0,-100.00,WSW,252,6.0,8.0,40,-99.99,,,-99.99,,2013-02-02 21:22:00,
2013-02-02 16:32:00,30.0,8.0,-100.00,WSW,252,6.0,8.0,40,-99.99,,,-99.99,,2013-02-02 21:32:00,
2013-02-02 16:42:00,30.0,8.0,-100.00,WSW,252,6.0,8.0,40,-99.99,,,-99.99,,2013-02-02 21:42:00,
2013-02-02 16:52:00,30.0,8.0,-100.00,WSW,252,6.0,8.0,40,-99.99,,,-99.99,,2013-02-02 21:52:00,
2013-02-02 17:00:00,30.0,15.0,-100.00,SSW,197,0.0,10.0,54,-99.99,,,-99.99,,2013-02-02 22:00:00,
2013-02-02 17:22:00,30.0,15.0,-100.00,SSW,197,0.0,10.0,54,-99.99,,,-99.99,,2013-02-02 22:22:00,
2013-02-02 17:32:00,30.0,15.0,-100.00,SSW,197,0.0,10.0,54,-99.99,,,-99.99,,2013-02-02 22:32:00,
2013-02-02 17:42:00,30.0,15.0,-100.00,SSW,197,0.0,10.0,54,-99.99,,,-99.99,,2013-02-02 22:42:00,
2013-02-02 17:52:00,30.0,15.0,-100.00,SSW,197,0.0,10.0,54,-99.99,,,-99.99,,2013-02-02 22:52:00,
2013-02-02 18:00:00,30.0,13.0,-100.00,WNW,287,7.0,11.0,50,-99.99,,,-99.99,,2013-02-02 23:00:00,
2013-02-02 18:22:00,30.0,13.0,-100.00,WNW,287,7.0,11.0,50,-99.99,,,-99.99,,2013-02-02 23:22:00,
2013-02-02 18:32:00,30.0,13.0,-100.00,WNW,287,7.0,11.0,50,-99.99,,,-99.99,,2013-02-02 23:32:00,
2013-02-02 18:42:00,30.0,13.0,-100.00,WNW,287,7.0,11.0,50,-99.99,,,-99.99,,2013-02-02 23:42:00,
2013-02-02 18:52:00,30.0,13.0,-100.00,WNW,287,7.0,11.0,50,-99.99,,,-99.99,,2013-02-02 23:52:00,
2013-02-02 19:00:00,30.0,15.0,-100.00,South,191,5.0,11.0,53,-99.99,,,-99.99,,2013-02-03 00:00:00,
2013-02-02 19:22:00,30.0,15.0,-100.00,South,191,5.0,11.0,53,-99.99,,,-99.99,,2013-02-03 00:22:00,
2013-02-02 19:32:00,30.0,15.0,-100.00,South,191,5.0,11.0,53,-99.99,,,-99.99,,2013-02-03 00:32:00,
2013-02-02 19:42:00,30.0,15.0,-100.00,South,191,5.0,11.0,53,-99.99,,,-99.99,,2013-02-03 00:42:00,
2013-02-02 19:52:00,30.0,15.0,-100.00,South,191,5.0,11.0,53,-99.99,,,-99.99,,2013-02-03 00:52:00,
2013-02-02 20:00:00,29.0,21.0,-100.00,WSW,246,8.0,16.0,72,-99.99,,,-99.99,,2013-02-03 01:00:00,
2013-02-02 20:21:00,29.0,21.0,-100.00,WSW,246,8.0,16.0,72,-99.99,,,-99.99,,2013-02-03 01:21:00,
2013-02-02 20:32:00,29.0,21.0,-100.00,WSW,246,8.0,16.0,72,-99.99,,,-99.99,,2013-02-03 01:32:00,
2013-02-02 20:42:00,29.0,21.0,-100.00,WSW,246,8.0,16.0,72,-99.99,,,-99.99,,2013-02-03 01:42:00,
2013-02-02 20:52:00,29.0,21.0,-100.00,WSW,246,8.0,16.0,72,-99.99,,,-99.99,,2013-02-03 01:52:00,
2013-02-02 21:00:00,27.0,25.0,-100.00,WSW,249,4.0,12.0,96,-99.99,,,-99.99,,2013-02-03 02:00:00,
2013-02-02 21:22:00,27.0,25.0,-100.00,WSW,249,4.0,12.0,96,-99.99,,,-99.99,,2013-02-03 02:22:00,
2013-02-02 21:32:00,27.0,25.0,-100.00,WSW,249,4.0,12.0,96,-99.99,,,-99.99,,2013-02-03 02:32:00,
2013-02-02 21:42:00,27.0,25.0,-100.00,WSW,249,4.0,12.0,96,-99.99,,,-99.99,,2013-02-03 02:42:00,
2013-02-02 21:52:00,27.0,25.0,-100.00,WSW,249,4.0,12.0,96,-99.99,,,-99.99,,2013-02-03 02:52:00,
2013-02-02 22:00:00,28.0,26.0,-100.00,WSW,238,8.0,13.0,96,-99.99,,,-99.99,,2013-02-03 03:00:00,
2013-02-02 22:22:00,28.0,26.0,-100.00,WSW,238,8.0,13.0,96,-99.99,,,-99.99,,2013-02-03 03:22:00,
2013-02-02 22:32:00,28.0,26.0,-100.00,WSW,238,8.0,13.0,96,-99.99,,,-99.99,,2013-02-03 03:32:00,
2013-02-02 22:42:00,28.0,26.0,-100.00,WSW,238,8.0,13.0,96,-99.99,,,-99.99,,2013-02-03 03:42:00,
2013-02-02 22:52:00,28.0,26.0,-100.00,WSW,238,8.0,13.0,96,-99.99,,,-99.99,,2013-02-03 03:52:00,
2013-02-02 23:00:00,28.0,27.0,-100.00,SSW,204,0.0,12.0,96,-99.99,,,-99.99,,2013-02-03 04:00:00,
2013-02-02 23:22:00,28.0,27.0,-100.00,SSW,204,0.0,12.0,96,-99.99,,,-99.99,,2013-02-03 04:22:00,
2013-02-02 23:32:00,28.0,27.0,-100.00,SSW,204,0.0,12.0,96,-99.99,,,-99.99,,2013-02-03 04:32:00,
2013-02-02 23:42:00,28.0,27.0,-100.00,SSW,204,0.0,12.0,96,-99.99,,,-99.99,,2013-02-03 04:42:00,
2013-02-02 23:52:00,28.0,27.0,-100.00,SSW,204,0.0,12.0,96,-99.99,,,-99.99,,2013-02-03 04:52:00,